Custer, Oklahoma
Current Conditions -  °F | °C
As of 9:35 PM on Friday 28 Nov 2014 (Local Time) from KCLK Reporting Station
Scattered Clouds Scattered Clouds  
Wind Chill: 54°   Ceiling: Unl
Heat Index: 54°   Visibility: 10mi
Dew Point: 37°   Wind: 14mph
Humidity: 54%   Direction: 160°SSE
Pressure: 29.82"   Gusts: NA
Location:  35.7358°N, 98.9842°W
Report Text: KCLK 290335Z AUTO 16012KT 10SM SCT100 12/03 A2982 RMK AO2
Loading
Personal Weather Stations






























Interactive Weather Map New forecast layout! Learn more

10-Day Weather Forecast

Advertisements
Track Severe Weather on mobile